Time;durP1;ratioP1;P1;durP2;ratioP2;P2;SDS_P1;SDS_P2;PMS_P1;PMS_P2;Temp;Humidity;BMP_temperature;BMP_pressure;BME280_temperature;BME280_humidity;BME280_pressure;Samples;Min_cycle;Max_cycle;Signal;HPM_P1;HPM_P2
2021/09/26 00:00:15;;;;;;;;;18.75;18.75;;;;;20.51;64.19;100913.81;4943225;28;45312;-65
2021/09/26 00:02:41;;;;;;;;;18.00;17.00;;;;;20.64;64.25;100939.13;4942524;28;45397;-66
2021/09/26 00:05:09;;;;;;;;;18.75;18.75;;;;;20.51;64.16;100925.56;4942834;28;45363;-65
2021/09/26 00:07:34;;;;;;;;;20.75;18.75;;;;;20.55;64.18;100939.75;4930230;28;45244;-66
2021/09/26 00:10:00;;;;;;;;;20.50;18.75;;;;;20.65;63.97;100956.28;4925641;28;45346;-65
2021/09/26 00:12:25;;;;;;;;;14.75;14.75;;;;;20.64;64.23;100968.94;4942722;28;45383;-66
2021/09/26 00:14:50;;;;;;;;;18.50;17.50;;;;;20.64;64.39;100974.38;4942738;28;45367;-66
2021/09/26 00:17:16;;;;;;;;;19.50;18.75;;;;;20.48;64.47;100958.31;4925095;28;45369;-66
2021/09/26 00:19:42;;;;;;;;;17.50;16.75;;;;;20.62;64.61;100973.59;4942784;28;45275;-66
2021/09/26 00:22:07;;;;;;;;;21.00;19.50;;;;;20.38;64.86;100937.34;4925167;28;45681;-66
2021/09/26 00:24:33;;;;;;;;;17.50;17.50;;;;;20.45;64.40;100949.53;4942655;28;46382;-66
2021/09/26 00:26:58;;;;;;;;;18.00;18.00;;;;;20.45;64.57;100954.94;4942154;28;45394;-65
2021/09/26 00:29:24;;;;;;;;;19.75;17.25;;;;;20.34;64.57;100943.00;4942438;28;45395;-66
2021/09/26 00:31:49;;;;;;;;;14.50;14.50;;;;;20.35;64.57;100947.44;4942383;28;45289;-65
2021/09/26 00:34:15;;;;;;;;;17.50;14.50;;;;;20.37;64.40;100971.75;4942230;28;45400;-66
2021/09/26 00:36:40;;;;;;;;;14.25;13.25;;;;;20.31;65.12;100967.63;4942321;28;45213;-65
2021/09/26 00:39:06;;;;;;;;;16.75;16.00;;;;;20.34;64.68;100982.78;4925174;28;45794;-66
2021/09/26 00:41:31;;;;;;;;;13.50;12.75;;;;;20.30;64.86;100968.59;4942103;28;45216;-66
2021/09/26 00:43:57;;;;;;;;;16.25;16.25;;;;;20.30;64.63;100965.88;4924870;28;47206;-66
2021/09/26 00:46:23;;;;;;;;;17.00;17.00;;;;;20.48;64.54;100996.28;4942176;28;45241;-65
2021/09/26 00:48:48;;;;;;;;;14.00;13.50;;;;;20.33;64.46;100972.91;4942224;28;45371;-65
2021/09/26 00:51:16;;;;;;;;;13.50;13.50;;;;;20.48;64.60;100989.97;4942218;28;45307;-66
2021/09/26 00:53:42;;;;;;;;;15.75;14.75;;;;;20.49;64.61;100983.56;4924678;28;48378;-66
2021/09/26 00:56:11;;;;;;;;;12.75;12.75;;;;;20.51;64.45;100992.47;4941452;28;45506;-66
2021/09/26 00:58:37;;;;;;;;;16.00;16.00;;;;;20.50;65.02;100990.75;4940837;28;45356;-65
2021/09/26 01:01:03;;;;;;;;;17.50;16.50;;;;;20.48;64.78;100988.13;4941971;28;45505;-66
2021/09/26 01:03:28;;;;;;;;;14.75;14.25;;;;;20.21;64.75;100950.25;4940412;28;46214;-65
2021/09/26 01:06:18;;;;;;;;;16.25;15.00;;;;;20.36;64.99;100988.97;4941447;28;45219;-65
2021/09/26 01:09:14;;;;;;;;;19.00;16.00;;;;;20.31;64.94;100989.31;4933066;28;45470;-65
2021/09/26 01:11:45;;;;;;;;;16.25;15.25;;;;;20.29;65.10;100995.81;4930756;28;45161;-66
2021/09/26 01:14:33;;;;;;;;;14.75;14.25;;;;;20.22;64.95;100987.22;4941685;28;45512;-66
2021/09/26 01:17:06;;;;;;;;;14.00;14.00;;;;;19.98;65.34;100950.00;4902939;28;45462;-65
2021/09/26 01:19:43;;;;;;;;;16.00;13.25;;;;;20.19;65.19;100990.16;4941603;28;45371;-65
2021/09/26 01:22:19;;;;;;;;;12.50;12.50;;;;;20.13;65.12;100979.72;4941870;28;45324;-65
2021/09/26 01:25:07;;;;;;;;;15.75;15.75;;;;;20.22;65.30;101000.78;4940335;28;47463;-66
2021/09/26 01:27:49;;;;;;;;;11.25;11.25;;;;;20.24;65.28;101006.97;4941347;28;45539;-65
2021/09/26 01:30:22;;;;;;;;;14.75;13.75;;;;;20.15;64.95;101003.03;4941574;28;45304;-65
2021/09/26 01:33:04;;;;;;;;;16.00;14.75;;;;;20.09;65.14;100992.63;4941426;28;45267;-66
2021/09/26 01:35:32;;;;;;;;;16.75;14.75;;;;;20.19;65.45;101017.25;4941588;28;45493;-66
2021/09/26 01:38:04;;;;;;;;;16.00;13.00;;;;;20.24;64.98;101025.06;4941472;28;45524;-66
2021/09/26 01:40:47;;;;;;;;;12.00;12.00;;;;;20.22;64.81;101016.19;4941532;28;45274;-66
2021/09/26 01:43:17;;;;;;;;;15.00;14.00;;;;;20.02;64.88;100982.31;4941305;28;45173;-65
2021/09/26 01:45:47;;;;;;;;;16.00;13.25;;;;;20.05;64.88;100979.41;4924128;28;47172;-66
2021/09/26 01:48:22;;;;;;;;;15.75;14.50;;;;;20.12;64.82;100991.56;4941208;28;45340;-66
2021/09/26 01:50:51;;;;;;;;;15.00;15.00;;;;;20.22;64.78;100999.94;4941657;28;45390;-66
2021/09/26 01:53:19;;;;;;;;;12.75;12.50;;;;;20.10;64.92;100979.97;4941152;28;45516;-65
2021/09/26 01:55:47;;;;;;;;;16.25;14.00;;;;;20.10;64.99;100977.25;4940895;28;45438;-65
2021/09/26 01:58:15;;;;;;;;;13.75;12.75;;;;;20.22;65.00;101006.19;4940753;28;45449;-66
2021/09/26 02:00:41;;;;;;;;;14.75;14.25;;;;;20.09;64.99;100983.63;4941231;28;45445;-66
2021/09/26 02:03:07;;;;;;;;;12.75;10.25;;;;;20.07;64.85;100986.44;4941021;28;45363;-66
2021/09/26 02:05:38;;;;;;;;;12.25;12.00;;;;;19.92;65.03;100963.13;4923799;28;46476;-65
2021/09/26 02:08:06;;;;;;;;;12.75;12.75;;;;;19.94;65.31;100970.16;4927914;28;45462;-66
2021/09/26 02:10:32;;;;;;;;;16.00;14.50;;;;;20.04;64.95;100988.50;4944636;28;45426;-65
2021/09/26 02:12:59;;;;;;;;;16.75;14.00;;;;;20.07;65.01;100994.56;4944543;28;45406;-66
2021/09/26 02:15:26;;;;;;;;;16.00;15.50;;;;;20.09;65.00;101000.75;4944501;28;46515;-66
2021/09/26 02:17:53;;;;;;;;;17.00;13.25;;;;;20.09;65.19;101005.31;4944110;28;45249;-66
2021/09/26 02:20:20;;;;;;;;;11.75;11.75;;;;;20.05;65.39;101009.22;4944713;28;45291;-66
2021/09/26 02:22:50;;;;;;;;;17.75;15.00;;;;;19.98;65.05;101006.06;4944254;28;45509;-65
2021/09/26 02:25:18;;;;;;;;;15.75;15.75;;;;;19.86;65.38;100991.47;4943965;28;45509;-66
2021/09/26 02:27:44;;;;;;;;;17.00;15.00;;;;;19.87;65.76;100997.78;4943653;28;45450;-66
2021/09/26 02:30:10;;;;;;;;;13.50;12.00;;;;;19.93;65.52;101009.06;4944208;28;45237;-66
2021/09/26 02:32:36;;;;;;;;;14.50;14.50;;;;;19.93;65.92;101009.06;4944142;28;45328;-66
2021/09/26 02:35:04;;;;;;;;;14.50;14.50;;;;;19.84;65.53;100997.97;4944083;28;46394;-65
2021/09/26 02:37:29;;;;;;;;;16.00;15.25;;;;;19.84;65.61;101006.97;4944081;28;45498;-66
2021/09/26 02:39:55;;;;;;;;;14.00;13.75;;;;;19.71;65.68;100978.94;4944351;28;45325;-66
2021/09/26 02:42:45;;;;;;;;;15.50;13.75;;;;;19.85;65.58;101000.59;4944146;28;45417;-65
2021/09/26 02:45:25;;;;;;;;;14.25;13.75;;;;;19.85;65.76;100992.47;4941401;28;46588;-65
2021/09/26 02:48:23;;;;;;;;;14.50;13.50;;;;;19.73;65.60;100971.56;4943886;28;45567;-66
2021/09/26 02:50:51;;;;;;;;;16.25;15.75;;;;;19.72;65.91;100969.84;4934360;28;45537;-66
2021/09/26 02:53:17;;;;;;;;;14.25;13.50;;;;;19.65;65.73;100961.25;4943827;28;45316;-66
2021/09/26 02:55:45;;;;;;;;;14.00;14.00;;;;;19.46;65.50;100933.69;4943707;28;46228;-66
2021/09/26 02:58:11;;;;;;;;;12.75;12.25;;;;;19.58;65.69;100949.97;4943770;28;45313;-66
2021/09/26 03:00:40;;;;;;;;;14.25;13.25;;;;;19.72;65.77;100959.00;4943992;28;45320;-65
2021/09/26 03:03:23;;;;;;;;;11.00;11.00;;;;;19.77;65.61;100960.47;4943551;28;45553;-65
2021/09/26 03:05:49;;;;;;;;;13.00;13.00;;;;;19.69;65.52;100945.66;4943426;28;45426;-65
2021/09/26 03:08:16;;;;;;;;;11.00;11.00;;;;;19.83;65.46;100967.31;4931002;28;45282;-65
2021/09/26 03:10:43;;;;;;;;;12.75;12.25;;;;;19.69;65.63;100943.81;4943743;28;45321;-66
2021/09/26 03:13:09;;;;;;;;;14.25;13.25;;;;;19.73;65.40;100942.66;4943802;28;45493;-66
2021/09/26 03:15:34;;;;;;;;;15.75;14.50;;;;;19.87;65.50;100965.25;4943437;28;45452;-65
2021/09/26 03:18:00;;;;;;;;;13.50;12.25;;;;;19.71;65.47;100941.00;4943616;28;45441;-66
2021/09/26 03:20:25;;;;;;;;;12.25;11.00;;;;;19.91;65.50;100958.66;4942465;28;45237;-66
2021/09/26 03:22:51;;;;;;;;;13.25;12.50;;;;;19.87;65.35;100951.72;4943566;28;45560;-66
2021/09/26 03:25:17;;;;;;;;;12.50;12.25;;;;;19.86;65.28;100942.72;4943134;28;45702;-66
2021/09/26 03:27:43;;;;;;;;;12.75;12.00;;;;;19.88;65.56;100940.78;4923025;28;45931;-65
2021/09/26 03:30:10;;;;;;;;;13.00;11.00;;;;;19.90;65.61;100944.25;4936907;28;45314;-65
2021/09/26 03:32:35;;;;;;;;;15.00;14.25;;;;;19.78;65.58;100932.41;4943237;28;45303;-66
2021/09/26 03:35:01;;;;;;;;;18.00;14.50;;;;;19.72;65.54;100934.63;4925966;28;47454;-65
2021/09/26 03:37:27;;;;;;;;;12.00;11.25;;;;;19.63;65.73;100923.47;4943278;28;45442;-66
2021/09/26 03:39:52;;;;;;;;;14.75;12.25;;;;;19.69;65.55;100924.00;4943389;28;45951;-66
2021/09/26 03:42:17;;;;;;;;;14.00;12.25;;;;;19.62;65.56;100931.69;4943290;28;45327;-66
2021/09/26 03:44:43;;;;;;;;;11.25;11.25;;;;;19.61;65.84;100929.94;4942999;28;46177;-65
2021/09/26 03:47:09;;;;;;;;;14.00;14.00;;;;;19.68;65.61;100942.09;4925846;28;45525;-66
2021/09/26 03:49:36;;;;;;;;;14.50;14.00;;;;;19.61;65.45;100938.94;4941700;28;45362;-65
2021/09/26 03:52:02;;;;;;;;;13.00;11.25;;;;;19.76;65.63;100960.56;4931890;28;45256;-66
2021/09/26 03:54:27;;;;;;;;;13.50;12.50;;;;;19.67;65.62;100951.19;4925369;28;47494;-65
2021/09/26 03:56:52;;;;;;;;;13.25;12.00;;;;;19.74;65.75;100957.06;4942953;28;45340;-66
2021/09/26 03:59:19;;;;;;;;;10.50;10.50;;;;;19.60;65.53;100920.09;4943063;28;45292;-66
2021/09/26 04:01:46;;;;;;;;;15.50;12.50;;;;;19.66;65.76;100930.50;4925685;28;45536;-66
2021/09/26 04:04:11;;;;;;;;;14.00;13.00;;;;;19.71;65.74;100930.19;4925233;28;48515;-66
2021/09/26 04:06:38;;;;;;;;;16.75;14.25;;;;;19.78;66.21;100942.38;4934799;28;45323;-66
2021/09/26 04:09:05;;;;;;;;;12.75;12.50;;;;;19.75;65.80;100939.88;4921085;28;45413;-66
2021/09/26 04:11:30;;;;;;;;;12.50;12.25;;;;;19.49;66.24;100893.72;4925566;28;45513;-65
2021/09/26 04:13:56;;;;;;;;;10.75;10.75;;;;;19.65;65.91;100926.06;4942660;28;45396;-66
2021/09/26 04:16:21;;;;;;;;;11.50;10.75;;;;;19.77;65.97;100941.50;4925478;28;45339;-66
2021/09/26 04:18:46;;;;;;;;;12.75;12.00;;;;;19.61;65.93;100917.28;4942559;28;45431;-66
2021/09/26 04:21:16;;;;;;;;;14.00;13.00;;;;;19.55;66.02;100906.00;4942775;28;45898;-66
2021/09/26 04:23:41;;;;;;;;;15.25;15.00;;;;;19.55;66.17;100922.25;4942256;28;46247;-65
2021/09/26 04:26:06;;;;;;;;;13.00;12.50;;;;;19.63;66.06;100937.00;4921858;28;45370;-66
2021/09/26 04:28:32;;;;;;;;;13.00;13.00;;;;;19.52;66.26;100917.03;4938824;28;45406;-66
2021/09/26 04:30:57;;;;;;;;;13.75;13.75;;;;;19.68;66.09;100935.81;4942067;28;45407;-66
2021/09/26 04:33:23;;;;;;;;;13.00;12.75;;;;;19.56;66.38;100921.25;4940718;28;46316;-65
2021/09/26 04:35:48;;;;;;;;;11.75;11.50;;;;;19.63;66.33;100934.28;4942563;28;45486;-65
2021/09/26 04:38:13;;;;;;;;;15.25;15.25;;;;;19.47;66.62;100897.53;4942244;28;45367;-66
2021/09/26 04:40:41;;;;;;;;;16.25;15.00;;;;;19.48;66.60;100896.53;4925086;28;45428;-66
2021/09/26 04:43:07;;;;;;;;;14.00;14.00;;;;;19.37;66.42;100872.91;4937545;28;47998;-65
2021/09/26 04:45:32;;;;;;;;;15.50;13.25;;;;;19.61;66.14;100924.50;4934471;28;45225;-66
2021/09/26 04:47:57;;;;;;;;;12.75;11.75;;;;;19.38;66.77;100893.59;4941924;28;45725;-66
2021/09/26 04:50:23;;;;;;;;;16.50;14.00;;;;;19.49;66.68;100922.66;4924931;28;45253;-66
2021/09/26 04:52:48;;;;;;;;;15.00;15.00;;;;;19.35;66.77;100905.50;4941859;28;45518;-66
2021/09/26 04:55:14;;;;;;;;;13.50;13.50;;;;;19.29;66.63;100895.06;4942106;28;45229;-66
2021/09/26 04:57:39;;;;;;;;;16.25;16.25;;;;;19.51;66.76;100935.13;4942031;28;45258;-65
2021/09/26 05:00:06;;;;;;;;;12.75;11.50;;;;;19.41;66.91;100909.59;4942220;28;45615;-65
2021/09/26 05:02:32;;;;;;;;;21.00;20.00;;;;;19.30;66.85;100895.94;4941632;28;46569;-65
2021/09/26 05:04:57;;;;;;;;;14.00;12.75;;;;;19.43;66.90;100926.66;4942078;28;45419;-66
2021/09/26 05:07:22;;;;;;;;;18.50;16.75;;;;;19.46;67.08;100929.13;4934156;28;46804;-66
2021/09/26 05:09:48;;;;;;;;;16.75;14.25;;;;;19.37;67.34;100924.34;4941930;28;45447;-66
2021/09/26 05:12:13;;;;;;;;;16.75;15.75;;;;;19.20;66.95;100910.06;4941652;28;46651;-65
2021/09/26 05:14:39;;;;;;;;;17.25;15.00;;;;;19.39;66.94;100946.75;4941891;28;45475;-66
2021/09/26 05:17:06;;;;;;;;;18.50;15.50;;;;;19.36;67.17;100944.25;4940597;28;45337;-66
2021/09/26 05:19:31;;;;;;;;;15.75;13.00;;;;;19.22;66.95;100924.38;4941804;28;45211;-65
2021/09/26 05:21:59;;;;;;;;;19.75;19.25;;;;;19.43;67.14;100967.25;4940282;28;47084;-66
2021/09/26 05:24:25;;;;;;;;;16.50;16.50;;;;;19.45;67.06;100973.41;4941619;28;45649;-66
2021/09/26 05:26:50;;;;;;;;;13.75;13.25;;;;;19.31;67.31;100963.50;4924345;28;45512;-66
2021/09/26 05:29:16;;;;;;;;;19.25;16.75;;;;;19.38;67.04;100983.78;4941441;28;45435;-66
2021/09/26 05:31:41;;;;;;;;;19.25;18.50;;;;;19.15;67.11;100951.94;4939859;28;47152;-66
2021/09/26 05:34:06;;;;;;;;;17.25;17.00;;;;;19.32;67.46;100980.59;4941491;28;45381;-66
2021/09/26 05:36:32;;;;;;;;;17.50;15.75;;;;;19.26;67.25;100965.63;4941435;28;45343;-66
2021/09/26 05:38:57;;;;;;;;;16.00;15.50;;;;;19.34;67.28;100978.66;4923685;28;45385;-66
2021/09/26 05:41:23;;;;;;;;;19.25;17.25;;;;;19.23;67.38;100958.59;4941141;28;45318;-65
2021/09/26 05:43:49;;;;;;;;;16.75;13.75;;;;;19.30;67.45;100980.72;4919951;28;45986;-65
2021/09/26 05:46:14;;;;;;;;;21.00;16.75;;;;;19.36;67.17;100974.00;4939227;28;45303;-66
2021/09/26 05:48:40;;;;;;;;;16.25;15.75;;;;;19.46;67.47;100996.78;4941410;28;45394;-66
2021/09/26 05:51:06;;;;;;;;;18.00;14.50;;;;;19.50;67.53;101001.06;4941066;28;46526;-66
2021/09/26 05:53:32;;;;;;;;;10.50;10.25;;;;;19.49;67.50;100993.91;4924097;28;45361;-65
2021/09/26 05:55:57;;;;;;;;;14.75;14.25;;;;;19.33;67.48;100971.50;4941457;28;45263;-66
2021/09/26 05:58:22;;;;;;;;;18.50;16.25;;;;;19.47;67.70;101012.09;4941234;28;45487;-66
2021/09/26 06:00:48;;;;;;;;;18.00;16.25;;;;;19.35;67.74;100993.94;4941083;28;46165;-66
2021/09/26 06:03:14;;;;;;;;;17.00;15.00;;;;;19.55;67.54;101036.81;4923872;28;45308;-65
2021/09/26 06:05:41;;;;;;;;;16.50;15.50;;;;;19.33;67.57;100999.47;4941168;28;45542;-66
2021/09/26 06:08:06;;;;;;;;;17.50;15.25;;;;;19.59;67.58;101043.75;4934550;28;45510;-65
2021/09/26 06:10:32;;;;;;;;;15.50;15.50;;;;;19.37;67.65;101003.69;4923538;28;47149;-65
2021/09/26 06:12:57;;;;;;;;;16.25;14.50;;;;;19.56;67.73;101032.25;4920718;28;45395;-65
2021/09/26 06:15:22;;;;;;;;;13.75;13.75;;;;;19.58;67.84;101033.91;4939464;28;45684;-65
2021/09/26 06:17:48;;;;;;;;;15.00;15.00;;;;;19.51;67.87;101029.00;4940786;28;45438;-65
2021/09/26 06:20:13;;;;;;;;;12.25;12.25;;;;;19.55;67.95;101041.38;4940837;28;45411;-65
2021/09/26 06:22:39;;;;;;;;;15.75;15.50;;;;;19.57;67.86;101044.84;4940900;28;45319;-66
2021/09/26 06:25:05;;;;;;;;;15.25;13.50;;;;;19.57;67.92;101050.25;4940991;28;45350;-66
2021/09/26 06:27:31;;;;;;;;;16.75;15.25;;;;;19.34;67.97;101003.88;4941154;28;45400;-66
2021/09/26 06:29:56;;;;;;;;;16.50;15.50;;;;;19.57;68.00;101039.44;4940595;28;46095;-66
2021/09/26 06:32:23;;;;;;;;;15.00;12.75;;;;;19.49;68.16;101020.97;4940751;28;45256;-65
2021/09/26 06:34:51;;;;;;;;;16.50;15.00;;;;;19.36;68.13;101001.06;4940917;28;45551;-66
2021/09/26 06:37:17;;;;;;;;;16.25;16.25;;;;;19.39;68.23;101009.00;4940616;28;45506;-66
2021/09/26 06:39:42;;;;;;;;;18.50;16.00;;;;;19.41;68.01;101026.00;4923199;28;46458;-66
2021/09/26 06:42:08;;;;;;;;;15.00;13.75;;;;;19.46;68.05;101039.25;4940709;28;45407;-66
2021/09/26 06:44:33;;;;;;;;;15.25;15.25;;;;;19.56;68.31;101059.34;4928007;28;45300;-66
2021/09/26 06:46:59;;;;;;;;;13.00;13.00;;;;;19.58;68.17;101061.00;4940782;28;45537;-65
2021/09/26 06:49:24;;;;;;;;;15.50;14.75;;;;;19.41;68.12;101026.91;4940093;28;45393;-66
2021/09/26 06:51:50;;;;;;;;;15.75;15.75;;;;;19.37;68.22;101019.94;4940723;28;45589;-65
2021/09/26 06:54:15;;;;;;;;;14.50;14.50;;;;;19.44;68.33;101036.66;4941288;28;45292;-66
2021/09/26 06:56:40;;;;;;;;;15.75;14.75;;;;;19.43;68.22;101030.38;4923446;28;45546;-65
2021/09/26 06:59:06;;;;;;;;;20.00;17.25;;;;;19.48;68.33;101040.00;4940571;28;46014;-65
2021/09/26 07:01:32;;;;;;;;;13.00;13.00;;;;;19.67;68.15;101070.34;4943979;28;45239;-65
2021/09/26 07:03:59;;;;;;;;;15.25;14.75;;;;;19.41;68.40;101028.72;4943581;28;45431;-66
2021/09/26 07:06:24;;;;;;;;;16.50;16.50;;;;;19.43;68.33;101027.66;4939373;28;45491;-65
2021/09/26 07:08:50;;;;;;;;;18.25;17.50;;;;;19.58;68.60;101066.41;4940479;28;46319;-66
2021/09/26 07:11:15;;;;;;;;;19.00;15.25;;;;;19.67;68.15;101075.75;4943648;28;45417;-66
2021/09/26 07:13:41;;;;;;;;;14.00;14.00;;;;;19.61;67.99;101082.47;4943741;28;45311;-66
2021/09/26 07:16:06;;;;;;;;;17.00;14.00;;;;;19.67;68.32;101081.19;4943614;28;45487;-65
2021/09/26 07:18:32;;;;;;;;;19.25;15.50;;;;;19.54;68.66;101062.16;4941360;28;46449;-66
2021/09/26 07:20:57;;;;;;;;;14.25;14.25;;;;;19.50;68.61;101057.91;4942658;28;45318;-66
2021/09/26 07:23:22;;;;;;;;;15.00;13.50;;;;;19.46;68.37;101041.97;4927020;28;45497;-65
2021/09/26 07:25:48;;;;;;;;;17.00;15.75;;;;;19.58;68.46;101057.44;4942812;28;45482;-66
2021/09/26 07:28:13;;;;;;;;;13.50;13.50;;;;;19.58;68.40;101055.56;4941913;28;45545;-66
2021/09/26 07:30:41;;;;;;;;;14.50;14.50;;;;;19.75;68.68;101083.44;4942834;28;45455;-70
2021/09/26 07:33:07;;;;;;;;;16.50;14.50;;;;;19.79;68.66;101098.50;4932245;28;45273;-70
2021/09/26 07:35:36;;;;;;;;;14.50;14.50;;;;;19.69;68.39;101081.94;4941426;28;45497;-70
2021/09/26 07:38:01;;;;;;;;;18.00;16.25;;;;;19.77;68.35;101103.16;4942409;28;45513;-70
2021/09/26 07:40:27;;;;;;;;;14.75;14.75;;;;;19.62;68.56;101078.75;4942421;28;45474;-70
2021/09/26 07:42:54;;;;;;;;;16.50;15.50;;;;;19.69;68.88;101102.75;4942919;28;46667;-70
2021/09/26 07:45:20;;;;;;;;;24.75;19.50;;;;;19.63;68.67;101095.91;4943212;28;45254;-70
2021/09/26 07:47:45;;;;;;;;;16.25;15.75;;;;;19.54;68.65;101081.09;4941592;28;46326;-70
2021/09/26 07:50:12;;;;;;;;;18.00;16.75;;;;;19.80;68.63;101130.03;4942010;28;45490;-70
2021/09/26 07:52:37;;;;;;;;;15.75;15.00;;;;;19.84;68.53;101128.84;4942517;28;45318;-70
2021/09/26 07:55:05;;;;;;;;;23.00;16.75;;;;;19.82;68.52;101119.97;4942045;28;45237;-71
2021/09/26 07:57:32;;;;;;;;;18.50;16.50;;;;;19.77;68.40;101111.28;4942035;28;45862;-70
2021/09/26 07:59:58;;;;;;;;;17.25;16.75;;;;;19.59;68.77;101078.97;4942896;28;45350;-71
2021/09/26 08:02:26;;;;;;;;;17.25;16.00;;;;;19.74;68.47;101103.31;4942353;28;45507;-71
2021/09/26 08:04:58;;;;;;;;;20.75;18.50;;;;;19.74;68.49;101114.16;4942090;28;45378;-70
2021/09/26 08:10:23;;;;;;;;;17.25;15.25;;;;;19.80;68.47;101119.22;5245330;23;45447;-69
2021/09/26 08:43:49;;;;;;;;;;;;;;;;;;;;;
2021/09/26 08:54:06;;;;;;;;;;;;;;;;;;;;;
2021/09/26 08:57:23;;;;;;;;;;;;;;;;;;;;;
2021/09/26 09:00:25;;;;;;;;;;;;;;;;;;;;;
2021/09/26 09:20:12;;;;;;;;;;;;;;;;;;;;;
2021/09/26 09:23:16;;;;;;;;;;;;;;;;;;;;;
2021/09/26 09:40:27;;;;;;;;;10.75;9.50;;;;;20.48;67.40;101103.84;5301676;23;46647;-67
2021/09/26 09:42:54;;;;;;;;;11.75;11.75;;;;;20.76;67.13;101145.38;4978809;28;45323;-71
2021/09/26 09:45:19;;;;;;;;;10.75;10.75;;;;;20.88;67.01;101147.25;4978605;28;46131;-72
2021/09/26 09:48:10;;;;;;;;;13.50;10.00;;;;;20.92;66.67;101146.06;4962360;28;45351;-72
2021/09/26 09:50:57;;;;;;;;;12.75;12.25;;;;;20.95;66.06;101148.56;4978798;28;45398;-72
2021/09/26 09:53:27;;;;;;;;;10.25;10.25;;;;;20.82;66.60;101126.84;4962072;28;45259;-72
2021/09/26 09:56:04;;;;;;;;;13.50;13.00;;;;;20.94;66.94;101132.41;4962884;28;47094;-72
2021/09/26 09:58:41;;;;;;;;;15.25;12.75;;;;;21.02;66.68;101138.16;4963056;28;45413;-73
2021/09/26 10:01:10;;;;;;;;;12.25;11.50;;;;;21.08;66.24;101156.69;4961925;28;45762;-71
2021/09/26 10:03:39;;;;;;;;;11.75;11.50;;;;;21.02;66.12;101133.59;4962682;28;45596;-72
2021/09/26 10:06:35;;;;;;;;;11.00;10.75;;;;;21.14;66.02;101155.41;4961862;28;47120;-72
2021/09/26 10:09:25;;;;;;;;;13.75;10.25;;;;;21.14;66.16;101150.84;4948363;28;45523;-73
2021/09/26 10:11:57;;;;;;;;;10.00;10.00;;;;;21.13;66.23;101154.53;4951221;28;45657;-82
2021/09/26 10:14:28;;;;;;;;;16.50;15.75;;;;;21.19;66.12;101153.25;4959349;28;45445;-78
2021/09/26 10:16:56;;;;;;;;;13.25;12.50;;;;;21.21;65.96;101151.28;4961528;28;46898;-78
2021/09/26 10:19:25;;;;;;;;;15.25;12.50;;;;;21.17;66.64;101147.06;4977248;28;45532;-81
2021/09/26 10:21:51;;;;;;;;;11.00;11.00;;;;;;;;4979451;28;45626;-81
2021/09/26 10:24:19;;;;;;;;;15.00;14.25;;;;;21.20;66.41;101146.81;4979126;28;45542;-83
2021/09/26 10:26:46;;;;;;;;;11.75;10.75;;;;;21.05;65.73;101119.81;4961208;28;46748;-81
2021/09/26 10:29:18;;;;;;;;;13.00;11.00;;;;;21.07;66.55;101114.28;4962766;28;45412;-82
2021/09/26 10:31:46;;;;;;;;;10.75;10.75;;;;;21.16;66.56;101126.31;4965802;28;45458;-82
2021/09/26 10:34:20;;;;;;;;;11.50;10.25;;;;;20.89;66.52;101076.59;4964422;28;45517;-82
2021/09/26 10:36:50;;;;;;;;;10.00;8.00;;;;;20.91;66.06;101076.47;4951954;28;47571;-83
2021/09/26 10:39:22;;;;;;;;;12.50;11.00;;;;;20.99;66.17;101092.22;4981169;28;45417;-81
2021/09/26 10:45:16;;;;;;;;;10.50;10.50;;;;;21.12;66.06;101112.09;4892440;28;45952;-77
2021/09/26 10:47:59;;;;;;;;;11.00;9.75;;;;;20.96;65.00;101087.03;4955506;28;47420;-78
2021/09/26 10:50:39;;;;;;;;;9.75;9.75;;;;;21.14;65.18;101107.41;4959462;28;45463;-75
2021/09/26 10:53:36;;;;;;;;;12.50;10.00;;;;;21.00;65.01;101083.09;4964019;28;45835;-79
2021/09/26 11:23:03;;;;;;;;;10.75;9.75;;;;;21.57;64.59;101119.81;4930423;28;46866;-81
2021/09/26 11:26:07;;;;;;;;;10.00;9.75;;;;;21.60;64.26;101119.56;4970217;28;45551;-80
2021/09/26 11:28:59;;;;;;;;;9.00;9.00;;;;;21.38;63.63;101076.75;4959968;28;45562;-81
2021/09/26 11:31:55;;;;;;;;;;;;;;;;;;;;;
2021/09/26 11:34:55;;;;;;;;;;;;;;;;;;;;;
2021/09/26 11:37:38;;;;;;;;;10.50;9.00;;;;;21.68;63.00;101110.84;4981081;28;71565;-78
2021/09/26 11:40:07;;;;;;;;;9.25;8.50;;;;;21.31;63.46;101051.06;4980989;28;45394;-78
2021/09/26 11:42:41;;;;;;;;;9.25;9.25;;;;;21.33;63.52;101057.22;4975982;28;45167;-78
2021/09/26 11:45:31;;;;;;;;;9.50;9.00;;;;;21.59;63.32;101090.66;4964368;28;45324;-79
2021/09/26 11:48:40;;;;;;;;;11.50;11.00;;;;;21.75;63.41;101118.44;4972662;28;46313;-78
2021/09/26 11:51:31;;;;;;;;;10.50;9.00;;;;;21.65;63.05;101090.19;4967206;28;45218;-80
2021/09/26 11:54:12;;;;;;;;;13.75;10.00;;;;;21.48;63.97;101047.97;4962093;28;45638;-80
2021/09/26 11:56:52;;;;;;;;;;;;;;;;;;;;;
2021/09/26 11:59:18;;;;;;;;;10.50;10.50;;;;;21.66;63.88;101075.66;4975820;28;73142;-81
2021/09/26 12:05:19;;;;;;;;;;;;;;;;;;;;;
2021/09/26 12:15:03;;;;;;;;;10.25;9.25;;;;;21.54;64.53;101025.81;4896938;28;45464;-80
2021/09/26 12:17:47;;;;;;;;;8.25;8.25;;;;;21.96;64.36;101094.22;4887433;28;47551;-79
2021/09/26 12:21:10;;;;;;;;;9.00;9.00;;;;;21.81;64.09;101069.06;4964121;28;47339;-81
2021/09/26 12:24:05;;;;;;;;;9.50;9.50;;;;;21.81;63.29;101058.19;4972018;28;45365;-81
2021/09/26 12:32:11;;;;;;;;;9.50;9.50;;;;;21.77;63.55;101043.13;5023250;23;45792;-73
2021/09/26 12:34:45;;;;;;;;;9.00;8.25;;;;;21.99;63.65;101085.84;4937412;28;45513;-75
2021/09/26 12:37:31;;;;;;;;;6.25;6.25;;;;;21.83;63.29;101050.81;4942646;28;45410;-77
2021/09/26 12:40:06;;;;;;;;;9.00;8.25;;;;;21.56;63.42;101003.97;4941990;28;46149;-79
2021/09/26 12:42:48;;;;;;;;;6.50;6.50;;;;;21.97;63.78;101060.66;4931516;28;47266;-77
2021/09/26 12:45:29;;;;;;;;;7.00;6.00;;;;;21.95;64.29;101050.84;4933114;28;45569;-80
2021/09/26 12:48:14;;;;;;;;;10.25;9.25;;;;;21.66;64.26;101002.31;4924492;28;45479;-76
2021/09/26 12:51:32;;;;;;;;;10.00;10.00;;;;;21.70;64.44;101006.53;4936581;28;46103;-76
2021/09/26 12:54:05;;;;;;;;;8.25;7.75;;;;;21.73;64.05;101017.16;4928647;28;47338;-74
2021/09/26 12:56:39;;;;;;;;;9.50;7.25;;;;;21.83;64.25;101039.94;4938050;28;46105;-74
2021/09/26 12:59:28;;;;;;;;;8.00;8.00;;;;;21.98;64.37;101050.63;4937734;28;45486;-78
2021/09/26 13:02:07;;;;;;;;;9.25;8.25;;;;;21.91;65.96;101035.78;4936546;28;45502;-79
2021/09/26 13:12:01;;;;;;;;;;;;;;;;;;;;;
2021/09/26 13:18:16;;;;;;;;;13.00;10.50;;;;;22.16;66.18;101130.78;4885950;28;45812;-79
2021/09/26 13:20:42;;;;;;;;;4.50;4.50;;;;;22.07;66.17;101082.56;4914956;28;45522;-72
2021/09/26 13:23:25;;;;;;;;;4.50;3.00;;;;;21.86;66.10;101065.16;4910424;28;45705;-72
2021/09/26 13:25:57;;;;;;;;;2.00;2.00;;;;;21.67;65.70;101052.06;4928809;28;45481;-73
2021/09/26 13:28:24;;;;;;;;;4.50;4.50;;;;;21.60;66.70;101071.53;4940620;28;46191;-73
2021/09/26 13:31:20;;;;;;;;;3.00;2.50;;;;;21.33;66.78;101052.66;4941061;28;45811;-73
2021/09/26 13:33:55;;;;;;;;;2.50;2.50;;;;;21.36;66.92;101062.44;4941308;28;45558;-73
2021/09/26 13:36:52;;;;;;;;;3.00;2.00;;;;;21.27;67.04;101053.97;4940247;28;45279;-73
2021/09/26 13:39:38;;;;;;;;;3.00;3.00;;;;;21.49;66.39;101105.91;4932193;28;45571;-73
2021/09/26 13:42:13;;;;;;;;;3.00;3.00;;;;;21.25;66.85;101060.50;4941253;28;45439;-73
2021/09/26 13:44:38;;;;;;;;;5.00;4.00;;;;;21.26;68.05;101071.25;4941494;28;45345;-73
2021/09/26 13:47:05;;;;;;;;;4.25;4.25;;;;;21.26;67.61;101073.94;4941185;28;45581;-73
2021/09/26 13:49:31;;;;;;;;;6.75;5.75;;;;;21.39;67.39;101097.53;4941487;28;45356;-73
2021/09/26 13:51:56;;;;;;;;;6.00;3.00;;;;;21.21;67.37;101075.28;4932520;28;45265;-73
2021/09/26 13:54:22;;;;;;;;;6.00;5.25;;;;;21.31;67.63;101075.47;4941431;28;45258;-73